sensor_id;sensor_type;location;lat;lon;timestamp;P1;durP1;ratioP1;P2;durP2;ratioP2
36691;SDS011;22678;52.052;4.242;2024-02-26T00:00:25;2.90;;;1.00;;
36691;SDS011;22678;52.052;4.242;2024-02-26T00:02:50;3.43;;;0.90;;
36691;SDS011;22678;52.052;4.242;2024-02-26T00:05:16;4.00;;;1.23;;
36691;SDS011;22678;52.052;4.242;2024-02-26T00:07:41;4.87;;;1.20;;
36691;SDS011;22678;52.052;4.242;2024-02-26T00:10:06;4.00;;;1.13;;
36691;SDS011;22678;52.052;4.242;2024-02-26T00:12:32;4.83;;;1.37;;
36691;SDS011;22678;52.052;4.242;2024-02-26T00:14:57;2.30;;;0.87;;
36691;SDS011;22678;52.052;4.242;2024-02-26T00:17:23;5.00;;;1.67;;
36691;SDS011;22678;52.052;4.242;2024-02-26T00:19:49;5.20;;;2.20;;
36691;SDS011;22678;52.052;4.242;2024-02-26T00:22:15;4.50;;;1.13;;
36691;SDS011;22678;52.052;4.242;2024-02-26T00:24:40;2.13;;;1.07;;
36691;SDS011;22678;52.052;4.242;2024-02-26T00:27:06;6.97;;;1.57;;
36691;SDS011;22678;52.052;4.242;2024-02-26T00:29:31;3.57;;;1.30;;
36691;SDS011;22678;52.052;4.242;2024-02-26T00:31:57;3.47;;;1.33;;
36691;SDS011;22678;52.052;4.242;2024-02-26T00:34:23;3.67;;;2.03;;
36691;SDS011;22678;52.052;4.242;2024-02-26T00:36:48;3.83;;;1.10;;
36691;SDS011;22678;52.052;4.242;2024-02-26T00:39:13;5.30;;;1.47;;
36691;SDS011;22678;52.052;4.242;2024-02-26T00:41:41;4.20;;;1.53;;
36691;SDS011;22678;52.052;4.242;2024-02-26T00:44:06;2.40;;;1.13;;
36691;SDS011;22678;52.052;4.242;2024-02-26T00:46:32;5.03;;;1.37;;
36691;SDS011;22678;52.052;4.242;2024-02-26T00:48:57;3.13;;;1.00;;
36691;SDS011;22678;52.052;4.242;2024-02-26T00:51:23;3.43;;;1.50;;
36691;SDS011;22678;52.052;4.242;2024-02-26T00:53:48;5.47;;;1.80;;
36691;SDS011;22678;52.052;4.242;2024-02-26T00:56:13;4.40;;;1.50;;
36691;SDS011;22678;52.052;4.242;2024-02-26T00:58:39;3.23;;;1.23;;
36691;SDS011;22678;52.052;4.242;2024-02-26T01:01:04;3.07;;;1.03;;
36691;SDS011;22678;52.052;4.242;2024-02-26T01:03:29;3.77;;;1.07;;
36691;SDS011;22678;52.052;4.242;2024-02-26T01:05:55;4.53;;;1.67;;
36691;SDS011;22678;52.052;4.242;2024-02-26T01:08:20;2.57;;;1.00;;
36691;SDS011;22678;52.052;4.242;2024-02-26T01:10:45;3.30;;;2.17;;
36691;SDS011;22678;52.052;4.242;2024-02-26T01:13:11;3.23;;;1.17;;
36691;SDS011;22678;52.052;4.242;2024-02-26T01:15:36;3.33;;;0.80;;
36691;SDS011;22678;52.052;4.242;2024-02-26T01:18:02;2.07;;;1.00;;
36691;SDS011;22678;52.052;4.242;2024-02-26T01:20:27;2.10;;;0.90;;
36691;SDS011;22678;52.052;4.242;2024-02-26T01:22:53;3.77;;;1.43;;
36691;SDS011;22678;52.052;4.242;2024-02-26T01:25:18;3.10;;;1.30;;
36691;SDS011;22678;52.052;4.242;2024-02-26T01:27:43;3.37;;;1.10;;
36691;SDS011;22678;52.052;4.242;2024-02-26T01:30:09;4.63;;;1.83;;
36691;SDS011;22678;52.052;4.242;2024-02-26T01:32:35;4.17;;;2.07;;
36691;SDS011;22678;52.052;4.242;2024-02-26T01:35:01;1.73;;;0.87;;
36691;SDS011;22678;52.052;4.242;2024-02-26T01:37:28;3.27;;;2.30;;
36691;SDS011;22678;52.052;4.242;2024-02-26T01:39:54;1.97;;;1.50;;
36691;SDS011;22678;52.052;4.242;2024-02-26T01:42:20;2.43;;;0.87;;
36691;SDS011;22678;52.052;4.242;2024-02-26T01:44:46;3.23;;;1.30;;
36691;SDS011;22678;52.052;4.242;2024-02-26T01:47:11;4.77;;;1.50;;
36691;SDS011;22678;52.052;4.242;2024-02-26T01:49:37;3.93;;;1.30;;
36691;SDS011;22678;52.052;4.242;2024-02-26T01:52:04;2.33;;;1.37;;
36691;SDS011;22678;52.052;4.242;2024-02-26T01:54:31;2.80;;;1.37;;
36691;SDS011;22678;52.052;4.242;2024-02-26T01:56:59;6.53;;;2.20;;
36691;SDS011;22678;52.052;4.242;2024-02-26T01:59:24;5.27;;;2.80;;
36691;SDS011;22678;52.052;4.242;2024-02-26T02:01:52;7.17;;;1.80;;
36691;SDS011;22678;52.052;4.242;2024-02-26T02:04:20;3.93;;;1.97;;
36691;SDS011;22678;52.052;4.242;2024-02-26T02:06:48;5.27;;;1.93;;
36691;SDS011;22678;52.052;4.242;2024-02-26T02:09:13;4.37;;;2.07;;
36691;SDS011;22678;52.052;4.242;2024-02-26T02:11:39;4.97;;;1.73;;
36691;SDS011;22678;52.052;4.242;2024-02-26T02:14:04;5.50;;;2.07;;
36691;SDS011;22678;52.052;4.242;2024-02-26T02:16:29;4.57;;;1.80;;
36691;SDS011;22678;52.052;4.242;2024-02-26T02:18:55;3.77;;;1.77;;
36691;SDS011;22678;52.052;4.242;2024-02-26T02:21:20;4.40;;;1.90;;
36691;SDS011;22678;52.052;4.242;2024-02-26T02:23:46;6.60;;;1.87;;
36691;SDS011;22678;52.052;4.242;2024-02-26T02:26:14;5.90;;;2.50;;
36691;SDS011;22678;52.052;4.242;2024-02-26T02:28:40;5.03;;;2.10;;
36691;SDS011;22678;52.052;4.242;2024-02-26T02:31:06;4.87;;;2.33;;
36691;SDS011;22678;52.052;4.242;2024-02-26T02:33:31;4.73;;;2.30;;
36691;SDS011;22678;52.052;4.242;2024-02-26T02:35:58;6.63;;;2.50;;
36691;SDS011;22678;52.052;4.242;2024-02-26T02:38:23;4.50;;;1.53;;
36691;SDS011;22678;52.052;4.242;2024-02-26T02:40:51;7.60;;;2.37;;
36691;SDS011;22678;52.052;4.242;2024-02-26T02:43:19;3.67;;;2.27;;
36691;SDS011;22678;52.052;4.242;2024-02-26T02:45:44;5.00;;;2.83;;
36691;SDS011;22678;52.052;4.242;2024-02-26T02:48:10;6.07;;;2.40;;
36691;SDS011;22678;52.052;4.242;2024-02-26T02:50:36;6.90;;;2.30;;
36691;SDS011;22678;52.052;4.242;2024-02-26T02:53:02;8.60;;;2.20;;
36691;SDS011;22678;52.052;4.242;2024-02-26T02:55:27;5.10;;;1.80;;
36691;SDS011;22678;52.052;4.242;2024-02-26T02:57:53;7.47;;;3.03;;
36691;SDS011;22678;52.052;4.242;2024-02-26T03:00:18;3.10;;;1.63;;
36691;SDS011;22678;52.052;4.242;2024-02-26T03:02:44;5.70;;;1.93;;
36691;SDS011;22678;52.052;4.242;2024-02-26T03:05:10;6.53;;;2.47;;
36691;SDS011;22678;52.052;4.242;2024-02-26T03:07:35;3.50;;;1.80;;
36691;SDS011;22678;52.052;4.242;2024-02-26T03:10:00;3.87;;;1.23;;
36691;SDS011;22678;52.052;4.242;2024-02-26T03:12:26;5.00;;;1.37;;
36691;SDS011;22678;52.052;4.242;2024-02-26T03:14:52;4.43;;;2.00;;
36691;SDS011;22678;52.052;4.242;2024-02-26T03:17:19;4.47;;;2.00;;
36691;SDS011;22678;52.052;4.242;2024-02-26T03:19:45;5.13;;;1.83;;
36691;SDS011;22678;52.052;4.242;2024-02-26T03:22:11;5.53;;;1.57;;
36691;SDS011;22678;52.052;4.242;2024-02-26T03:24:37;3.07;;;1.30;;
36691;SDS011;22678;52.052;4.242;2024-02-26T03:27:02;4.57;;;1.70;;
36691;SDS011;22678;52.052;4.242;2024-02-26T03:29:30;6.13;;;1.87;;
36691;SDS011;22678;52.052;4.242;2024-02-26T03:31:56;5.90;;;2.23;;
36691;SDS011;22678;52.052;4.242;2024-02-26T03:34:21;4.20;;;1.97;;
36691;SDS011;22678;52.052;4.242;2024-02-26T03:36:46;5.03;;;1.77;;
36691;SDS011;22678;52.052;4.242;2024-02-26T03:39:12;7.00;;;2.57;;
36691;SDS011;22678;52.052;4.242;2024-02-26T03:41:37;4.73;;;2.43;;
36691;SDS011;22678;52.052;4.242;2024-02-26T03:44:02;5.37;;;2.33;;
36691;SDS011;22678;52.052;4.242;2024-02-26T03:46:28;5.10;;;1.67;;
36691;SDS011;22678;52.052;4.242;2024-02-26T03:48:54;5.77;;;3.13;;
36691;SDS011;22678;52.052;4.242;2024-02-26T03:51:19;7.40;;;3.67;;
36691;SDS011;22678;52.052;4.242;2024-02-26T03:53:45;7.33;;;2.83;;
36691;SDS011;22678;52.052;4.242;2024-02-26T03:56:13;6.63;;;2.90;;
36691;SDS011;22678;52.052;4.242;2024-02-26T03:58:38;9.00;;;2.37;;
36691;SDS011;22678;52.052;4.242;2024-02-26T04:01:06;5.83;;;2.47;;
36691;SDS011;22678;52.052;4.242;2024-02-26T04:03:32;6.53;;;3.23;;
36691;SDS011;22678;52.052;4.242;2024-02-26T04:05:58;6.97;;;3.40;;
36691;SDS011;22678;52.052;4.242;2024-02-26T04:08:23;5.10;;;2.73;;
36691;SDS011;22678;52.052;4.242;2024-02-26T04:10:48;9.07;;;3.10;;
36691;SDS011;22678;52.052;4.242;2024-02-26T04:13:14;6.07;;;3.17;;
36691;SDS011;22678;52.052;4.242;2024-02-26T04:15:39;11.53;;;4.43;;
36691;SDS011;22678;52.052;4.242;2024-02-26T04:18:05;7.50;;;3.30;;
36691;SDS011;22678;52.052;4.242;2024-02-26T04:20:30;8.37;;;3.47;;
36691;SDS011;22678;52.052;4.242;2024-02-26T04:22:56;9.80;;;4.23;;
36691;SDS011;22678;52.052;4.242;2024-02-26T04:25:21;9.17;;;4.57;;
36691;SDS011;22678;52.052;4.242;2024-02-26T04:27:46;10.00;;;3.57;;
36691;SDS011;22678;52.052;4.242;2024-02-26T04:30:12;8.80;;;4.77;;
36691;SDS011;22678;52.052;4.242;2024-02-26T04:32:37;11.57;;;4.53;;
36691;SDS011;22678;52.052;4.242;2024-02-26T04:35:02;11.43;;;6.00;;
36691;SDS011;22678;52.052;4.242;2024-02-26T04:37:28;11.40;;;5.20;;
36691;SDS011;22678;52.052;4.242;2024-02-26T04:39:59;7.53;;;4.70;;
36691;SDS011;22678;52.052;4.242;2024-02-26T04:44:57;7.93;;;4.35;;
36691;SDS011;22678;52.052;4.242;2024-02-26T04:47:22;12.03;;;5.57;;
36691;SDS011;22678;52.052;4.242;2024-02-26T04:49:51;9.90;;;5.10;;
36691;SDS011;22678;52.052;4.242;2024-02-26T04:52:17;10.60;;;4.57;;
36691;SDS011;22678;52.052;4.242;2024-02-26T04:54:42;11.53;;;5.20;;
36691;SDS011;22678;52.052;4.242;2024-02-26T04:57:07;10.70;;;4.27;;
36691;SDS011;22678;52.052;4.242;2024-02-26T04:59:33;10.47;;;4.50;;
36691;SDS011;22678;52.052;4.242;2024-02-26T05:01:58;10.50;;;4.47;;
36691;SDS011;22678;52.052;4.242;2024-02-26T05:04:23;12.70;;;4.67;;
36691;SDS011;22678;52.052;4.242;2024-02-26T05:06:49;10.50;;;4.97;;
36691;SDS011;22678;52.052;4.242;2024-02-26T05:09:14;9.23;;;4.10;;
36691;SDS011;22678;52.052;4.242;2024-02-26T05:11:39;7.90;;;3.73;;
36691;SDS011;22678;52.052;4.242;2024-02-26T05:14:05;13.67;;;6.63;;
36691;SDS011;22678;52.052;4.242;2024-02-26T05:16:31;7.53;;;3.33;;
36691;SDS011;22678;52.052;4.242;2024-02-26T05:18:56;12.43;;;6.33;;
36691;SDS011;22678;52.052;4.242;2024-02-26T05:21:22;8.27;;;4.17;;
36691;SDS011;22678;52.052;4.242;2024-02-26T05:23:47;12.47;;;5.73;;
36691;SDS011;22678;52.052;4.242;2024-02-26T05:26:19;11.90;;;5.07;;
36691;SDS011;22678;52.052;4.242;2024-02-26T05:28:45;9.80;;;5.60;;
36691;SDS011;22678;52.052;4.242;2024-02-26T05:31:12;10.40;;;4.70;;
36691;SDS011;22678;52.052;4.242;2024-02-26T05:33:38;14.37;;;4.47;;
36691;SDS011;22678;52.052;4.242;2024-02-26T05:36:03;12.97;;;4.50;;
36691;SDS011;22678;52.052;4.242;2024-02-26T05:38:30;10.03;;;4.33;;
36691;SDS011;22678;52.052;4.242;2024-02-26T05:40:56;9.57;;;4.03;;
36691;SDS011;22678;52.052;4.242;2024-02-26T05:43:22;13.60;;;6.50;;
36691;SDS011;22678;52.052;4.242;2024-02-26T05:45:47;12.60;;;4.90;;
36691;SDS011;22678;52.052;4.242;2024-02-26T05:48:12;12.30;;;5.70;;
36691;SDS011;22678;52.052;4.242;2024-02-26T05:50:39;11.20;;;6.47;;
36691;SDS011;22678;52.052;4.242;2024-02-26T05:53:04;12.43;;;6.00;;
36691;SDS011;22678;52.052;4.242;2024-02-26T05:55:30;13.10;;;5.20;;
36691;SDS011;22678;52.052;4.242;2024-02-26T05:57:55;18.47;;;5.43;;
36691;SDS011;22678;52.052;4.242;2024-02-26T06:00:20;12.30;;;5.90;;
36691;SDS011;22678;52.052;4.242;2024-02-26T06:02:46;16.93;;;5.97;;
36691;SDS011;22678;52.052;4.242;2024-02-26T06:05:11;15.50;;;8.00;;
36691;SDS011;22678;52.052;4.242;2024-02-26T06:07:36;18.27;;;9.10;;
36691;SDS011;22678;52.052;4.242;2024-02-26T06:10:02;13.27;;;6.33;;
36691;SDS011;22678;52.052;4.242;2024-02-26T06:12:29;13.90;;;6.53;;
36691;SDS011;22678;52.052;4.242;2024-02-26T06:14:55;19.90;;;7.23;;
36691;SDS011;22678;52.052;4.242;2024-02-26T06:17:21;15.97;;;6.87;;
36691;SDS011;22678;52.052;4.242;2024-02-26T06:19:46;15.77;;;8.43;;
36691;SDS011;22678;52.052;4.242;2024-02-26T06:22:12;15.33;;;8.63;;
36691;SDS011;22678;52.052;4.242;2024-02-26T06:24:37;14.03;;;8.00;;
36691;SDS011;22678;52.052;4.242;2024-02-26T06:27:02;16.73;;;6.97;;
36691;SDS011;22678;52.052;4.242;2024-02-26T06:29:28;14.33;;;7.90;;
36691;SDS011;22678;52.052;4.242;2024-02-26T06:31:54;14.47;;;7.10;;
36691;SDS011;22678;52.052;4.242;2024-02-26T06:34:20;18.43;;;9.07;;
36691;SDS011;22678;52.052;4.242;2024-02-26T06:36:45;15.67;;;7.20;;
36691;SDS011;22678;52.052;4.242;2024-02-26T06:39:11;14.47;;;6.93;;
36691;SDS011;22678;52.052;4.242;2024-02-26T06:41:37;18.33;;;8.80;;
36691;SDS011;22678;52.052;4.242;2024-02-26T06:44:04;17.17;;;8.30;;
36691;SDS011;22678;52.052;4.242;2024-02-26T06:46:29;21.90;;;9.67;;
36691;SDS011;22678;52.052;4.242;2024-02-26T06:48:55;16.47;;;8.23;;
36691;SDS011;22678;52.052;4.242;2024-02-26T06:51:21;15.53;;;7.23;;
36691;SDS011;22678;52.052;4.242;2024-02-26T06:53:47;14.90;;;6.93;;
36691;SDS011;22678;52.052;4.242;2024-02-26T06:56:13;18.40;;;9.23;;
36691;SDS011;22678;52.052;4.242;2024-02-26T06:58:38;20.40;;;8.50;;
36691;SDS011;22678;52.052;4.242;2024-02-26T07:01:03;14.13;;;7.47;;
36691;SDS011;22678;52.052;4.242;2024-02-26T07:03:29;16.40;;;7.90;;
36691;SDS011;22678;52.052;4.242;2024-02-26T07:05:55;14.30;;;7.73;;
36691;SDS011;22678;52.052;4.242;2024-02-26T07:08:20;15.17;;;7.93;;
36691;SDS011;22678;52.052;4.242;2024-02-26T07:10:46;16.70;;;7.97;;
36691;SDS011;22678;52.052;4.242;2024-02-26T07:13:11;14.57;;;7.20;;
36691;SDS011;22678;52.052;4.242;2024-02-26T07:15:37;17.40;;;8.53;;
36691;SDS011;22678;52.052;4.242;2024-02-26T07:18:02;14.53;;;6.90;;
36691;SDS011;22678;52.052;4.242;2024-02-26T07:20:28;11.93;;;5.90;;
36691;SDS011;22678;52.052;4.242;2024-02-26T07:22:55;15.60;;;7.77;;
36691;SDS011;22678;52.052;4.242;2024-02-26T07:25:20;13.93;;;7.07;;
36691;SDS011;22678;52.052;4.242;2024-02-26T07:27:46;17.00;;;7.17;;
36691;SDS011;22678;52.052;4.242;2024-02-26T07:30:11;14.97;;;6.23;;
36691;SDS011;22678;52.052;4.242;2024-02-26T07:32:37;10.07;;;5.57;;
36691;SDS011;22678;52.052;4.242;2024-02-26T07:35:03;12.60;;;6.57;;
36691;SDS011;22678;52.052;4.242;2024-02-26T07:37:28;14.33;;;8.17;;
36691;SDS011;22678;52.052;4.242;2024-02-26T07:39:54;14.23;;;7.13;;
36691;SDS011;22678;52.052;4.242;2024-02-26T07:42:19;12.30;;;6.37;;
36691;SDS011;22678;52.052;4.242;2024-02-26T07:44:45;12.70;;;7.50;;
36691;SDS011;22678;52.052;4.242;2024-02-26T07:47:10;12.73;;;6.20;;
36691;SDS011;22678;52.052;4.242;2024-02-26T07:49:35;10.27;;;5.87;;
36691;SDS011;22678;52.052;4.242;2024-02-26T07:52:01;9.33;;;5.10;;
36691;SDS011;22678;52.052;4.242;2024-02-26T07:54:26;9.60;;;4.73;;
36691;SDS011;22678;52.052;4.242;2024-02-26T07:56:51;9.07;;;4.63;;
36691;SDS011;22678;52.052;4.242;2024-02-26T07:59:17;8.07;;;4.13;;
36691;SDS011;22678;52.052;4.242;2024-02-26T08:01:42;11.23;;;4.43;;
36691;SDS011;22678;52.052;4.242;2024-02-26T08:04:08;7.57;;;4.23;;
36691;SDS011;22678;52.052;4.242;2024-02-26T08:06:33;8.30;;;4.13;;
36691;SDS011;22678;52.052;4.242;2024-02-26T08:08:59;7.90;;;4.07;;
36691;SDS011;22678;52.052;4.242;2024-02-26T08:11:24;7.23;;;3.47;;
36691;SDS011;22678;52.052;4.242;2024-02-26T08:13:49;9.47;;;4.23;;
36691;SDS011;22678;52.052;4.242;2024-02-26T08:16:15;10.43;;;3.73;;
36691;SDS011;22678;52.052;4.242;2024-02-26T08:18:40;13.77;;;4.03;;
36691;SDS011;22678;52.052;4.242;2024-02-26T08:21:05;8.10;;;3.90;;
36691;SDS011;22678;52.052;4.242;2024-02-26T08:23:31;9.53;;;4.50;;
36691;SDS011;22678;52.052;4.242;2024-02-26T08:25:56;13.43;;;4.33;;
36691;SDS011;22678;52.052;4.242;2024-02-26T08:28:22;8.20;;;3.20;;
36691;SDS011;22678;52.052;4.242;2024-02-26T08:30:48;6.07;;;2.57;;
36691;SDS011;22678;52.052;4.242;2024-02-26T08:33:13;6.93;;;3.17;;
36691;SDS011;22678;52.052;4.242;2024-02-26T08:35:39;8.73;;;4.00;;
36691;SDS011;22678;52.052;4.242;2024-02-26T08:38:04;7.10;;;3.03;;
36691;SDS011;22678;52.052;4.242;2024-02-26T08:40:29;8.07;;;3.87;;
36691;SDS011;22678;52.052;4.242;2024-02-26T08:42:55;6.47;;;3.10;;
36691;SDS011;22678;52.052;4.242;2024-02-26T08:45:23;6.60;;;3.43;;
36691;SDS011;22678;52.052;4.242;2024-02-26T08:47:48;6.57;;;3.03;;
36691;SDS011;22678;52.052;4.242;2024-02-26T08:50:14;5.80;;;2.83;;
36691;SDS011;22678;52.052;4.242;2024-02-26T08:52:39;7.20;;;3.30;;
36691;SDS011;22678;52.052;4.242;2024-02-26T08:55:05;6.07;;;3.13;;
36691;SDS011;22678;52.052;4.242;2024-02-26T08:57:33;4.93;;;2.40;;
36691;SDS011;22678;52.052;4.242;2024-02-26T08:59:59;7.00;;;2.60;;
36691;SDS011;22678;52.052;4.242;2024-02-26T09:02:25;11.83;;;2.47;;
36691;SDS011;22678;52.052;4.242;2024-02-26T09:04:51;7.07;;;2.50;;
36691;SDS011;22678;52.052;4.242;2024-02-26T09:07:18;8.80;;;3.43;;
36691;SDS011;22678;52.052;4.242;2024-02-26T09:09:44;6.13;;;2.33;;
36691;SDS011;22678;52.052;4.242;2024-02-26T09:12:09;6.93;;;2.90;;
36691;SDS011;22678;52.052;4.242;2024-02-26T09:14:34;5.47;;;1.93;;
36691;SDS011;22678;52.052;4.242;2024-02-26T09:17:00;5.93;;;2.40;;
36691;SDS011;22678;52.052;4.242;2024-02-26T09:19:25;6.07;;;2.20;;
36691;SDS011;22678;52.052;4.242;2024-02-26T09:21:52;7.20;;;2.23;;
36691;SDS011;22678;52.052;4.242;2024-02-26T09:24:21;6.53;;;2.03;;
36691;SDS011;22678;52.052;4.242;2024-02-26T09:26:46;6.30;;;2.40;;
36691;SDS011;22678;52.052;4.242;2024-02-26T09:29:12;4.00;;;1.43;;
36691;SDS011;22678;52.052;4.242;2024-02-26T09:31:37;5.03;;;1.80;;
36691;SDS011;22678;52.052;4.242;2024-02-26T09:34:05;7.03;;;2.53;;
36691;SDS011;22678;52.052;4.242;2024-02-26T09:36:30;4.33;;;2.20;;
36691;SDS011;22678;52.052;4.242;2024-02-26T09:38:55;5.57;;;2.33;;
36691;SDS011;22678;52.052;4.242;2024-02-26T09:41:21;8.07;;;2.40;;
36691;SDS011;22678;52.052;4.242;2024-02-26T09:43:46;6.40;;;2.90;;
36691;SDS011;22678;52.052;4.242;2024-02-26T09:46:13;4.37;;;1.93;;
36691;SDS011;22678;52.052;4.242;2024-02-26T09:48:40;5.17;;;1.67;;
36691;SDS011;22678;52.052;4.242;2024-02-26T09:51:07;13.43;;;2.83;;
36691;SDS011;22678;52.052;4.242;2024-02-26T09:53:35;4.57;;;1.47;;
36691;SDS011;22678;52.052;4.242;2024-02-26T09:56:05;6.80;;;2.40;;
36691;SDS011;22678;52.052;4.242;2024-02-26T09:58:31;5.50;;;2.33;;
36691;SDS011;22678;52.052;4.242;2024-02-26T10:00:57;5.00;;;2.73;;
36691;SDS011;22678;52.052;4.242;2024-02-26T10:03:31;4.93;;;2.23;;
36691;SDS011;22678;52.052;4.242;2024-02-26T10:06:03;7.23;;;2.13;;
36691;SDS011;22678;52.052;4.242;2024-02-26T10:08:30;4.57;;;2.37;;
36691;SDS011;22678;52.052;4.242;2024-02-26T10:10:57;5.20;;;2.10;;
36691;SDS011;22678;52.052;4.242;2024-02-26T10:13:22;5.33;;;2.10;;
36691;SDS011;22678;52.052;4.242;2024-02-26T10:15:48;8.07;;;2.20;;
36691;SDS011;22678;52.052;4.242;2024-02-26T10:18:13;5.23;;;2.03;;
36691;SDS011;22678;52.052;4.242;2024-02-26T10:20:39;7.83;;;2.23;;
36691;SDS011;22678;52.052;4.242;2024-02-26T10:23:04;3.07;;;1.87;;
36691;SDS011;22678;52.052;4.242;2024-02-26T10:25:30;5.27;;;2.10;;
36691;SDS011;22678;52.052;4.242;2024-02-26T10:27:58;5.33;;;2.40;;
36691;SDS011;22678;52.052;4.242;2024-02-26T10:30:27;5.80;;;2.50;;
36691;SDS011;22678;52.052;4.242;2024-02-26T10:32:52;4.20;;;1.50;;
36691;SDS011;22678;52.052;4.242;2024-02-26T10:35:18;6.10;;;1.97;;
36691;SDS011;22678;52.052;4.242;2024-02-26T10:37:47;7.07;;;2.87;;
36691;SDS011;22678;52.052;4.242;2024-02-26T10:40:14;4.73;;;1.97;;
36691;SDS011;22678;52.052;4.242;2024-02-26T10:42:40;4.17;;;1.97;;
36691;SDS011;22678;52.052;4.242;2024-02-26T10:45:06;4.33;;;1.57;;
36691;SDS011;22678;52.052;4.242;2024-02-26T10:47:34;4.17;;;1.73;;
36691;SDS011;22678;52.052;4.242;2024-02-26T10:50:01;5.03;;;1.93;;
36691;SDS011;22678;52.052;4.242;2024-02-26T10:52:28;10.50;;;3.53;;
36691;SDS011;22678;52.052;4.242;2024-02-26T10:54:56;5.87;;;2.20;;
36691;SDS011;22678;52.052;4.242;2024-02-26T10:57:25;5.27;;;1.63;;
36691;SDS011;22678;52.052;4.242;2024-02-26T10:59:54;11.70;;;3.03;;
36691;SDS011;22678;52.052;4.242;2024-02-26T11:02:21;5.60;;;2.53;;
36691;SDS011;22678;52.052;4.242;2024-02-26T11:04:46;5.47;;;2.07;;
36691;SDS011;22678;52.052;4.242;2024-02-26T11:07:12;5.07;;;1.37;;
36691;SDS011;22678;52.052;4.242;2024-02-26T11:09:38;6.80;;;1.60;;
36691;SDS011;22678;52.052;4.242;2024-02-26T11:12:10;3.40;;;1.50;;
36691;SDS011;22678;52.052;4.242;2024-02-26T11:14:38;4.47;;;1.63;;
36691;SDS011;22678;52.052;4.242;2024-02-26T11:17:05;3.20;;;1.07;;
36691;SDS011;22678;52.052;4.242;2024-02-26T11:19:33;4.67;;;2.37;;
36691;SDS011;22678;52.052;4.242;2024-02-26T11:22:01;4.67;;;1.57;;
36691;SDS011;22678;52.052;4.242;2024-02-26T11:24:27;4.93;;;2.33;;
36691;SDS011;22678;52.052;4.242;2024-02-26T11:26:56;7.50;;;2.90;;
36691;SDS011;22678;52.052;4.242;2024-02-26T11:29:27;6.47;;;1.70;;
36691;SDS011;22678;52.052;4.242;2024-02-26T11:31:59;6.10;;;2.27;;
36691;SDS011;22678;52.052;4.242;2024-02-26T11:34:25;15.37;;;2.13;;
36691;SDS011;22678;52.052;4.242;2024-02-26T11:36:51;4.53;;;1.40;;
36691;SDS011;22678;52.052;4.242;2024-02-26T11:39:17;5.00;;;1.40;;
36691;SDS011;22678;52.052;4.242;2024-02-26T11:41:43;4.60;;;1.83;;
36691;SDS011;22678;52.052;4.242;2024-02-26T11:44:08;2.93;;;1.13;;
36691;SDS011;22678;52.052;4.242;2024-02-26T11:46:41;3.70;;;1.20;;
36691;SDS011;22678;52.052;4.242;2024-02-26T11:49:30;4.80;;;1.17;;
36691;SDS011;22678;52.052;4.242;2024-02-26T11:51:57;3.00;;;1.10;;
36691;SDS011;22678;52.052;4.242;2024-02-26T11:59:50;4.73;;;1.47;;
36691;SDS011;22678;52.052;4.242;2024-02-26T12:05:23;6.90;;;1.13;;
36691;SDS011;22678;52.052;4.242;2024-02-26T12:07:52;4.47;;;0.77;;
36691;SDS011;22678;52.052;4.242;2024-02-26T12:10:25;4.30;;;1.03;;
36691;SDS011;22678;52.052;4.242;2024-02-26T12:13:05;7.60;;;1.80;;
36691;SDS011;22678;52.052;4.242;2024-02-26T12:15:33;3.70;;;1.30;;
36691;SDS011;22678;52.052;4.242;2024-02-26T12:18:03;3.60;;;1.30;;
36691;SDS011;22678;52.052;4.242;2024-02-26T12:20:29;4.27;;;0.97;;
36691;SDS011;22678;52.052;4.242;2024-02-26T12:22:56;2.27;;;0.53;;
36691;SDS011;22678;52.052;4.242;2024-02-26T12:25:23;3.27;;;1.00;;
36691;SDS011;22678;52.052;4.242;2024-02-26T12:27:53;3.53;;;1.03;;
36691;SDS011;22678;52.052;4.242;2024-02-26T12:30:19;3.83;;;1.17;;
36691;SDS011;22678;52.052;4.242;2024-02-26T12:32:45;3.17;;;0.73;;
36691;SDS011;22678;52.052;4.242;2024-02-26T12:35:13;4.60;;;1.47;;
36691;SDS011;22678;52.052;4.242;2024-02-26T12:37:39;6.57;;;2.43;;
36691;SDS011;22678;52.052;4.242;2024-02-26T12:40:05;2.87;;;0.70;;
36691;SDS011;22678;52.052;4.242;2024-02-26T12:42:33;2.37;;;1.23;;
36691;SDS011;22678;52.052;4.242;2024-02-26T12:45:04;2.03;;;0.57;;
36691;SDS011;22678;52.052;4.242;2024-02-26T12:47:41;2.90;;;0.93;;
36691;SDS011;22678;52.052;4.242;2024-02-26T12:50:08;2.83;;;0.70;;
36691;SDS011;22678;52.052;4.242;2024-02-26T12:52:35;5.43;;;1.33;;
36691;SDS011;22678;52.052;4.242;2024-02-26T12:55:04;3.57;;;0.60;;
36691;SDS011;22678;52.052;4.242;2024-02-26T12:57:34;6.20;;;1.10;;
36691;SDS011;22678;52.052;4.242;2024-02-26T13:00:02;3.43;;;0.60;;
36691;SDS011;22678;52.052;4.242;2024-02-26T13:02:28;6.83;;;1.07;;
36691;SDS011;22678;52.052;4.242;2024-02-26T13:04:55;4.57;;;1.00;;
36691;SDS011;22678;52.052;4.242;2024-02-26T13:07:22;3.37;;;0.40;;
36691;SDS011;22678;52.052;4.242;2024-02-26T13:09:47;3.80;;;0.50;;
36691;SDS011;22678;52.052;4.242;2024-02-26T13:12:13;2.63;;;0.97;;
36691;SDS011;22678;52.052;4.242;2024-02-26T13:14:41;4.40;;;1.17;;
36691;SDS011;22678;52.052;4.242;2024-02-26T13:17:06;5.53;;;0.83;;
36691;SDS011;22678;52.052;4.242;2024-02-26T13:19:32;5.67;;;2.23;;
36691;SDS011;22678;52.052;4.242;2024-02-26T13:22:06;4.23;;;0.70;;
36691;SDS011;22678;52.052;4.242;2024-02-26T13:24:35;3.77;;;1.00;;
36691;SDS011;22678;52.052;4.242;2024-02-26T13:27:01;3.23;;;0.80;;
36691;SDS011;22678;52.052;4.242;2024-02-26T13:29:30;2.83;;;0.73;;
36691;SDS011;22678;52.052;4.242;2024-02-26T13:31:57;3.83;;;0.93;;
36691;SDS011;22678;52.052;4.242;2024-02-26T13:34:26;3.27;;;1.00;;
36691;SDS011;22678;52.052;4.242;2024-02-26T13:36:55;5.23;;;0.90;;
36691;SDS011;22678;52.052;4.242;2024-02-26T13:39:25;2.40;;;0.50;;
36691;SDS011;22678;52.052;4.242;2024-02-26T13:41:51;4.37;;;0.77;;
36691;SDS011;22678;52.052;4.242;2024-02-26T13:44:18;3.73;;;0.53;;
36691;SDS011;22678;52.052;4.242;2024-02-26T13:46:44;6.40;;;0.70;;
36691;SDS011;22678;52.052;4.242;2024-02-26T13:49:09;4.13;;;1.37;;
36691;SDS011;22678;52.052;4.242;2024-02-26T13:51:40;3.67;;;0.80;;
36691;SDS011;22678;52.052;4.242;2024-02-26T13:54:06;1.60;;;0.40;;
36691;SDS011;22678;52.052;4.242;2024-02-26T13:56:32;5.73;;;0.50;;
36691;SDS011;22678;52.052;4.242;2024-02-26T13:58:58;3.10;;;0.50;;
36691;SDS011;22678;52.052;4.242;2024-02-26T14:01:24;2.83;;;0.70;;
36691;SDS011;22678;52.052;4.242;2024-02-26T14:03:49;3.93;;;1.20;;
36691;SDS011;22678;52.052;4.242;2024-02-26T14:06:15;2.87;;;0.70;;
36691;SDS011;22678;52.052;4.242;2024-02-26T14:08:41;2.27;;;0.40;;
36691;SDS011;22678;52.052;4.242;2024-02-26T14:11:06;2.00;;;0.60;;
36691;SDS011;22678;52.052;4.242;2024-02-26T14:13:32;2.73;;;0.90;;
36691;SDS011;22678;52.052;4.242;2024-02-26T14:15:57;2.73;;;0.80;;
36691;SDS011;22678;52.052;4.242;2024-02-26T14:18:23;6.90;;;1.93;;
36691;SDS011;22678;52.052;4.242;2024-02-26T14:20:48;2.80;;;1.03;;
36691;SDS011;22678;52.052;4.242;2024-02-26T14:23:13;2.23;;;0.50;;
36691;SDS011;22678;52.052;4.242;2024-02-26T14:25:39;3.27;;;1.07;;
36691;SDS011;22678;52.052;4.242;2024-02-26T14:28:04;6.30;;;0.50;;
36691;SDS011;22678;52.052;4.242;2024-02-26T14:30:30;2.00;;;0.80;;
36691;SDS011;22678;52.052;4.242;2024-02-26T14:32:55;3.47;;;0.80;;
36691;SDS011;22678;52.052;4.242;2024-02-26T14:35:21;5.97;;;1.43;;
36691;SDS011;22678;52.052;4.242;2024-02-26T14:37:46;2.73;;;0.80;;
36691;SDS011;22678;52.052;4.242;2024-02-26T14:40:12;3.53;;;0.90;;
36691;SDS011;22678;52.052;4.242;2024-02-26T14:42:38;7.10;;;1.37;;
36691;SDS011;22678;52.052;4.242;2024-02-26T14:45:04;3.03;;;0.70;;
36691;SDS011;22678;52.052;4.242;2024-02-26T14:47:32;2.97;;;0.87;;
36691;SDS011;22678;52.052;4.242;2024-02-26T14:49:57;3.10;;;1.00;;